createdAt,value
2024-04-26T00:02:16.867Z,3.45
2024-04-26T00:04:45.052Z,5.50
2024-04-26T00:07:11.716Z,3.95
2024-04-26T00:09:38.897Z,4.30
2024-04-26T00:12:05.916Z,4.18
2024-04-26T00:14:33.498Z,4.38
2024-04-26T00:17:00.400Z,4.90
2024-04-26T00:19:27.077Z,3.72
2024-04-26T00:21:53.718Z,7.50
2024-04-26T00:24:20.503Z,6.53
2024-04-26T00:26:51.737Z,3.05
2024-04-26T00:29:19.346Z,5.32
2024-04-26T00:31:46.243Z,5.10
2024-04-26T00:34:13.557Z,5.35
2024-04-26T00:36:43.293Z,3.53
2024-04-26T00:39:10.094Z,4.10
2024-04-26T00:41:37.172Z,4.10
2024-04-26T00:44:11.964Z,5.38
2024-04-26T00:46:40.588Z,9.18
2024-04-26T00:49:07.634Z,4.05
2024-04-26T00:51:34.910Z,4.70
2024-04-26T00:54:01.891Z,5.10
2024-04-26T00:56:28.997Z,3.33
2024-04-26T00:58:56.120Z,3.78
2024-04-26T01:01:23.877Z,4.15
2024-04-26T01:03:50.716Z,4.07
2024-04-26T01:06:18.476Z,7.00
2024-04-26T01:08:45.874Z,7.28
2024-04-26T01:11:14.488Z,4.10
2024-04-26T01:13:41.316Z,5.60
2024-04-26T01:16:08.186Z,4.85
2024-04-26T01:18:36.981Z,5.43
2024-04-26T01:21:03.985Z,4.10
2024-04-26T01:23:33.383Z,4.10
2024-04-26T01:26:01.906Z,5.95
2024-04-26T01:28:30.084Z,5.22
2024-04-26T01:30:56.994Z,4.25
2024-04-26T01:33:23.898Z,2.90
2024-04-26T01:35:50.789Z,3.50
2024-04-26T01:38:17.467Z,4.65
2024-04-26T01:40:44.184Z,4.18
2024-04-26T01:43:11.056Z,3.83
2024-04-26T01:45:37.797Z,6.10
2024-04-26T01:48:05.139Z,7.10
2024-04-26T01:50:31.913Z,3.38
2024-04-26T01:52:58.881Z,4.53
2024-04-26T01:55:25.831Z,3.63
2024-04-26T01:57:52.820Z,5.85
2024-04-26T02:00:19.835Z,3.78
2024-04-26T02:02:46.825Z,4.95
2024-04-26T02:05:13.635Z,4.65
2024-04-26T02:07:43.512Z,4.90
2024-04-26T02:10:10.250Z,4.95
2024-04-26T02:12:36.961Z,4.78
2024-04-26T02:15:04.033Z,3.45
2024-04-26T02:17:31.149Z,5.95
2024-04-26T02:19:58.159Z,5.03
2024-04-26T02:22:25.413Z,3.08
2024-04-26T02:24:52.068Z,7.22
2024-04-26T02:27:18.775Z,6.07
2024-04-26T02:29:46.899Z,5.07
2024-04-26T02:32:13.626Z,6.75
2024-04-26T02:34:42.320Z,4.72
2024-04-26T02:37:09.095Z,5.68
2024-04-26T02:39:35.795Z,5.32
2024-04-26T02:42:02.517Z,3.33
2024-04-26T02:44:29.232Z,5.72
2024-04-26T02:46:55.921Z,3.38
2024-04-26T02:49:22.662Z,4.05
2024-04-26T02:51:49.398Z,6.22
2024-04-26T02:54:16.211Z,3.65
2024-04-26T02:56:42.917Z,4.07
2024-04-26T02:59:09.619Z,4.55
2024-04-26T03:01:36.343Z,4.00
2024-04-26T03:04:03.433Z,6.47
2024-04-26T03:06:30.097Z,4.70
2024-04-26T03:08:56.763Z,4.70
2024-04-26T03:11:23.678Z,4.15
2024-04-26T03:13:50.778Z,25.73
2024-04-26T03:16:17.450Z,17.45
2024-04-26T03:18:47.063Z,13.95
2024-04-26T03:21:13.894Z,5.95
2024-04-26T03:23:41.643Z,7.75
2024-04-26T03:26:14.706Z,7.32
2024-04-26T03:28:46.707Z,9.02
2024-04-26T03:31:23.458Z,5.07
2024-04-26T03:33:50.800Z,6.80
2024-04-26T03:36:17.799Z,6.70
2024-04-26T03:38:47.723Z,5.68
2024-04-26T03:41:14.658Z,6.78
2024-04-26T03:43:41.365Z,3.20
2024-04-26T03:46:08.071Z,3.83
2024-04-26T03:48:34.914Z,6.43
2024-04-26T03:51:01.830Z,5.63
2024-04-26T03:53:28.659Z,6.20
2024-04-26T03:55:55.341Z,4.47
2024-04-26T03:58:22.121Z,5.22
2024-04-26T04:00:51.179Z,4.45
2024-04-26T04:03:22.562Z,4.45
2024-04-26T04:05:49.503Z,4.90
2024-04-26T04:08:16.282Z,4.60
2024-04-26T04:10:43.095Z,4.68
2024-04-26T04:13:09.862Z,7.97
2024-04-26T04:15:37.044Z,8.25
2024-04-26T04:18:03.953Z,8.95
2024-04-26T04:20:30.805Z,5.38
2024-04-26T04:22:57.503Z,5.18
2024-04-26T04:25:27.162Z,5.65
2024-04-26T04:27:53.977Z,7.68
2024-04-26T04:30:20.656Z,6.35
2024-04-26T04:32:47.455Z,5.20
2024-04-26T04:35:14.334Z,8.90
2024-04-26T04:37:40.996Z,6.95
2024-04-26T04:40:08.205Z,8.52
2024-04-26T04:42:34.818Z,7.78
2024-04-26T04:45:01.610Z,4.53
2024-04-26T04:47:28.407Z,5.53
2024-04-26T04:49:55.092Z,6.90
2024-04-26T04:52:21.694Z,14.35
2024-04-26T04:54:48.328Z,11.00
2024-04-26T04:57:15.045Z,8.80
2024-04-26T04:59:42.255Z,10.38
2024-04-26T05:02:09.088Z,5.95
2024-04-26T05:04:35.883Z,7.63
2024-04-26T05:07:02.598Z,6.07
2024-04-26T05:09:29.251Z,7.97
2024-04-26T05:11:56.004Z,7.72
2024-04-26T05:14:22.738Z,5.05
2024-04-26T05:16:49.522Z,12.85
2024-04-26T05:19:16.275Z,10.35
2024-04-26T05:21:42.952Z,6.05
2024-04-26T05:24:09.770Z,8.13
2024-04-26T05:26:36.645Z,7.78
2024-04-26T05:29:03.926Z,7.13
2024-04-26T05:31:30.699Z,7.05
2024-04-26T05:33:57.438Z,10.93
2024-04-26T05:36:24.137Z,32.50
2024-04-26T05:38:50.866Z,19.42
2024-04-26T05:41:17.556Z,5.38
2024-04-26T05:43:44.173Z,6.20
2024-04-26T05:46:11.267Z,6.78
2024-04-26T05:48:38.528Z,6.40
2024-04-26T05:51:07.004Z,5.28
2024-04-26T05:53:33.844Z,10.40
2024-04-26T05:56:01.535Z,12.98
2024-04-26T05:58:28.429Z,8.23
2024-04-26T06:00:55.272Z,10.73
2024-04-26T06:03:22.129Z,6.28
2024-04-26T06:05:49.037Z,6.78
2024-04-26T06:08:15.794Z,10.30
2024-04-26T06:10:42.423Z,7.82
2024-04-26T06:13:17.924Z,9.07
2024-04-26T06:15:49.914Z,7.13
2024-04-26T06:18:16.776Z,8.00
2024-04-26T06:20:43.600Z,5.63
2024-04-26T06:23:10.368Z,7.82
2024-04-26T06:25:37.940Z,8.40
2024-04-26T06:28:04.796Z,7.50
2024-04-26T06:30:31.663Z,8.32
2024-04-26T06:32:58.572Z,5.95
2024-04-26T06:35:25.299Z,6.45
2024-04-26T06:37:51.987Z,6.05
2024-04-26T06:40:18.637Z,6.70
2024-04-26T06:42:45.310Z,7.22
2024-04-26T06:45:12.019Z,8.63
2024-04-26T06:47:40.180Z,5.40
2024-04-26T06:50:07.140Z,7.20
2024-04-26T06:52:33.938Z,6.68
2024-04-26T06:55:00.714Z,7.15
2024-04-26T06:57:27.495Z,8.45
2024-04-26T06:59:54.297Z,4.78
2024-04-26T07:02:21.310Z,8.93
2024-04-26T07:04:48.438Z,6.35
2024-04-26T07:07:15.414Z,7.63
2024-04-26T07:09:42.176Z,6.10
2024-04-26T07:12:09.101Z,7.38
2024-04-26T07:14:35.938Z,6.80
2024-04-26T07:17:02.692Z,7.70
2024-04-26T07:19:30.059Z,5.43
2024-04-26T07:21:59.212Z,8.00
2024-04-26T07:24:26.829Z,9.38
2024-04-26T07:26:53.651Z,6.07
2024-04-26T07:29:27.305Z,5.43
2024-04-26T07:31:56.441Z,8.95
2024-04-26T07:34:23.510Z,4.43
2024-04-26T07:36:50.372Z,6.38
2024-04-26T07:39:17.187Z,4.07
2024-04-26T07:41:44.190Z,7.53
2024-04-26T07:44:10.935Z,5.40
2024-04-26T07:46:37.704Z,4.95
2024-04-26T07:49:07.040Z,7.65
2024-04-26T07:51:35.743Z,6.90
2024-04-26T07:54:02.738Z,9.80
2024-04-26T07:56:29.719Z,7.85
2024-04-26T07:58:56.405Z,5.88
2024-04-26T08:01:23.232Z,5.82
2024-04-26T08:03:50.303Z,6.22
2024-04-26T08:06:17.468Z,6.13
2024-04-26T08:08:44.303Z,5.68
2024-04-26T08:11:12.653Z,5.55
2024-04-26T08:13:40.279Z,5.55
2024-04-26T08:16:08.224Z,10.23
2024-04-26T08:18:35.162Z,5.70
2024-04-26T08:21:02.036Z,6.93
2024-04-26T08:23:28.949Z,8.52
2024-04-26T08:25:55.702Z,6.35
2024-04-26T08:28:22.385Z,5.22
2024-04-26T08:30:49.021Z,6.35
2024-04-26T08:33:16.805Z,5.57
2024-04-26T08:35:46.492Z,4.20
2024-04-26T08:38:13.272Z,5.93
2024-04-26T08:40:40.845Z,4.97
2024-04-26T08:43:10.780Z,7.07
2024-04-26T08:45:40.509Z,4.60
2024-04-26T08:50:40.275Z,5.03
2024-04-26T08:53:09.093Z,7.65
2024-04-26T08:55:38.967Z,4.28
2024-04-26T08:58:08.256Z,6.47
2024-04-26T09:00:35.967Z,7.93
2024-04-26T09:03:03.120Z,5.25
2024-04-26T09:05:31.848Z,4.45
2024-04-26T09:08:00.599Z,5.18
2024-04-26T09:10:28.154Z,6.07
2024-04-26T09:13:01.482Z,6.82
2024-04-26T09:15:31.583Z,4.90
2024-04-26T09:17:58.795Z,7.00
2024-04-26T09:20:26.619Z,5.05
2024-04-26T09:22:53.578Z,6.53
2024-04-26T09:25:20.328Z,5.53
2024-04-26T09:27:47.061Z,5.97
2024-04-26T09:30:14.025Z,4.85
2024-04-26T09:32:50.260Z,4.88
2024-04-26T09:35:22.740Z,7.07
2024-04-26T09:37:51.175Z,4.32
2024-04-26T09:40:18.163Z,8.70
2024-04-26T09:42:46.664Z,10.80
2024-04-26T09:45:15.779Z,5.45
2024-04-26T09:47:43.432Z,5.15
2024-04-26T09:50:11.299Z,3.85
2024-04-26T09:52:38.219Z,4.65
2024-04-26T09:55:07.106Z,6.05
2024-04-26T09:57:33.766Z,7.00
2024-04-26T10:00:00.854Z,6.95
2024-04-26T10:02:31.821Z,6.88
2024-04-26T10:04:58.919Z,4.07
2024-04-26T10:07:26.038Z,4.57
2024-04-26T10:10:00.706Z,4.28
2024-04-26T10:12:29.014Z,5.90
2024-04-26T10:15:12.732Z,6.43
2024-04-26T10:17:52.132Z,4.07
2024-04-26T10:20:21.145Z,4.15
2024-04-26T10:23:02.643Z,4.57
2024-04-26T10:25:30.112Z,5.60
2024-04-26T10:28:13.805Z,4.22
2024-04-26T10:30:51.185Z,3.65
2024-04-26T10:33:20.220Z,4.90
2024-04-26T10:35:47.473Z,4.43
2024-04-26T10:38:14.402Z,5.95
2024-04-26T10:40:45.562Z,4.50
2024-04-26T10:43:12.385Z,4.50
2024-04-26T10:45:39.334Z,5.30
2024-04-26T10:48:06.520Z,6.20
2024-04-26T10:50:33.343Z,3.30
2024-04-26T10:53:09.224Z,7.28
2024-04-26T10:55:40.297Z,8.15
2024-04-26T10:58:07.004Z,5.88
2024-04-26T11:00:40.498Z,3.10
2024-04-26T11:03:09.734Z,10.32
2024-04-26T11:05:44.714Z,5.95
2024-04-26T11:08:11.766Z,9.02
2024-04-26T11:10:40.514Z,5.88
2024-04-26T11:13:07.243Z,4.82
2024-04-26T11:15:34.539Z,7.28
2024-04-26T11:18:01.415Z,5.30
2024-04-26T11:20:28.311Z,6.22
2024-04-26T11:22:54.994Z,9.27
2024-04-26T11:25:21.604Z,5.00
2024-04-26T11:27:48.308Z,5.35
2024-04-26T11:30:15.084Z,5.93
2024-04-26T11:32:41.956Z,3.88
2024-04-26T11:35:08.927Z,3.90
2024-04-26T11:37:36.512Z,7.22
2024-04-26T11:40:05.773Z,8.20
2024-04-26T11:42:32.609Z,4.03
2024-04-26T11:45:00.761Z,4.45
2024-04-26T11:47:27.809Z,3.80
2024-04-26T11:49:54.934Z,7.10
2024-04-26T11:52:21.934Z,5.28
2024-04-26T11:54:48.681Z,3.95
2024-04-26T11:57:15.374Z,6.20
2024-04-26T11:59:43.268Z,7.55
2024-04-26T12:02:14.862Z,5.88
2024-04-26T12:04:46.738Z,6.82
2024-04-26T12:07:13.483Z,4.18
2024-04-26T12:09:40.260Z,4.18
2024-04-26T12:12:07.811Z,5.03
2024-04-26T12:14:38.594Z,6.20
2024-04-26T12:17:05.542Z,4.18
2024-04-26T12:19:32.373Z,4.95
2024-04-26T12:21:59.081Z,3.75
2024-04-26T12:24:25.895Z,5.07
2024-04-26T12:26:52.679Z,5.03
2024-04-26T12:29:23.612Z,5.75
2024-04-26T12:31:57.062Z,4.20
2024-04-26T12:34:25.935Z,3.95
2024-04-26T12:36:53.639Z,6.57
2024-04-26T12:39:20.644Z,3.80
2024-04-26T12:41:49.565Z,5.43
2024-04-26T12:44:16.510Z,6.57
2024-04-26T12:46:44.159Z,3.80
2024-04-26T12:49:16.643Z,3.83
2024-04-26T12:51:43.645Z,4.57
2024-04-26T12:54:10.378Z,5.07
2024-04-26T12:56:37.064Z,2.53
2024-04-26T12:59:03.888Z,3.20
2024-04-26T13:01:30.709Z,3.65
2024-04-26T13:03:57.697Z,3.60
2024-04-26T13:06:26.941Z,2.97
2024-04-26T13:08:53.984Z,4.68
2024-04-26T13:11:22.191Z,3.30
2024-04-26T13:13:54.076Z,3.17
2024-04-26T13:16:21.843Z,2.92
2024-04-26T13:18:49.133Z,4.68
2024-04-26T13:21:17.083Z,3.28
2024-04-26T13:23:45.543Z,5.95
2024-04-26T13:26:12.398Z,3.63
2024-04-26T13:28:39.067Z,4.68
2024-04-26T13:31:05.742Z,3.83
2024-04-26T13:33:34.533Z,4.40
2024-04-26T13:36:01.660Z,2.95
2024-04-26T13:38:28.521Z,4.15
2024-04-26T13:40:55.254Z,3.45
2024-04-26T13:43:22.023Z,6.03
2024-04-26T13:45:48.729Z,6.32
2024-04-26T13:48:17.985Z,5.80
2024-04-26T13:50:44.902Z,4.15
2024-04-26T13:53:11.687Z,7.10
2024-04-26T13:55:38.438Z,5.00
2024-04-26T13:58:05.121Z,3.90
2024-04-26T14:00:31.766Z,5.63
2024-04-26T14:02:58.639Z,3.95
2024-04-26T14:05:25.774Z,4.22
2024-04-26T14:07:52.526Z,3.45
2024-04-26T14:10:19.351Z,8.82
2024-04-26T14:12:46.236Z,3.88
2024-04-26T14:15:17.182Z,4.53
2024-04-26T14:17:48.546Z,5.57
2024-04-26T14:20:19.370Z,5.75
2024-04-26T14:22:46.157Z,2.88
2024-04-26T14:25:12.819Z,3.00
2024-04-26T14:27:39.482Z,4.20
2024-04-26T14:30:06.515Z,5.00
2024-04-26T14:32:33.319Z,6.75
2024-04-26T14:35:00.094Z,4.85
2024-04-26T14:37:27.142Z,3.50
2024-04-26T14:39:54.136Z,4.75
2024-04-26T14:42:21.543Z,2.28
2024-04-26T14:44:48.321Z,3.28
2024-04-26T14:47:14.959Z,4.32
2024-04-26T14:49:41.651Z,4.13
2024-04-26T14:52:09.486Z,6.20
2024-04-26T14:54:36.245Z,4.03
2024-04-26T14:57:03.045Z,3.58
2024-04-26T14:59:29.757Z,4.63
2024-04-26T15:01:56.756Z,2.40
2024-04-26T15:04:23.699Z,5.55
2024-04-26T15:06:50.554Z,5.32
2024-04-26T15:09:17.290Z,3.42
2024-04-26T15:11:44.162Z,4.47
2024-04-26T15:14:11.652Z,4.82
2024-04-26T15:16:45.732Z,3.38
2024-04-26T15:19:16.502Z,3.72
2024-04-26T15:21:43.898Z,3.35
2024-04-26T15:24:10.720Z,6.80
2024-04-26T15:26:40.191Z,5.07
2024-04-26T15:29:07.515Z,5.03
2024-04-26T15:31:34.206Z,4.50
2024-04-26T15:34:00.916Z,5.05
2024-04-26T15:36:27.681Z,5.70
2024-04-26T15:38:54.454Z,6.18
2024-04-26T15:41:21.142Z,3.83
2024-04-26T15:43:47.807Z,5.22
2024-04-26T15:46:14.497Z,6.13
2024-04-26T15:48:41.079Z,6.95
2024-04-26T15:51:07.914Z,4.53
2024-04-26T15:53:34.591Z,9.43
2024-04-26T15:56:01.272Z,3.25
2024-04-26T15:58:30.507Z,6.30
2024-04-26T16:00:57.229Z,5.78
2024-04-26T16:03:23.993Z,4.00
2024-04-26T16:05:50.839Z,5.07
2024-04-26T16:08:17.570Z,3.80
2024-04-26T16:10:46.385Z,5.03
2024-04-26T16:13:13.358Z,4.10
2024-04-26T16:15:40.104Z,9.25
2024-04-26T16:18:06.847Z,3.40
2024-04-26T16:20:33.916Z,5.90
2024-04-26T16:23:00.763Z,4.22
2024-04-26T16:25:27.456Z,5.07
2024-04-26T16:27:54.191Z,3.72
2024-04-26T16:30:21.806Z,4.15
2024-04-26T16:32:48.622Z,4.03
2024-04-26T16:35:17.351Z,4.45
2024-04-26T16:37:44.119Z,5.78
2024-04-26T16:40:11.306Z,4.65
2024-04-26T16:42:38.066Z,3.88
2024-04-26T16:45:05.079Z,2.72
2024-04-26T16:47:31.991Z,4.15
2024-04-26T16:49:58.848Z,2.90
2024-04-26T16:52:25.986Z,2.30
2024-04-26T16:54:52.818Z,2.33
2024-04-26T16:57:19.565Z,2.70
2024-04-26T16:59:46.295Z,3.53
2024-04-26T17:02:15.529Z,4.22
2024-04-26T17:04:42.446Z,4.00
2024-04-26T17:07:11.674Z,5.95
2024-04-26T17:09:41.551Z,2.28
2024-04-26T17:12:08.282Z,3.13
2024-04-26T17:14:38.028Z,3.22
2024-04-26T17:17:04.877Z,3.03
2024-04-26T17:19:31.604Z,2.88
2024-04-26T17:21:58.370Z,3.13
2024-04-26T17:24:25.058Z,2.35
2024-04-26T17:26:51.800Z,4.65
2024-04-26T17:29:18.555Z,4.22
2024-04-26T17:31:45.691Z,2.88
2024-04-26T17:34:12.637Z,3.60
2024-04-26T17:36:40.860Z,3.88
2024-04-26T17:39:16.479Z,2.92
2024-04-26T17:41:43.761Z,3.10
2024-04-26T17:44:10.593Z,3.00
2024-04-26T17:46:37.324Z,2.17
2024-04-26T17:49:04.168Z,3.13
2024-04-26T17:51:30.926Z,3.42
2024-04-26T17:53:57.753Z,2.72
2024-04-26T17:56:25.071Z,3.90
2024-04-26T17:58:52.722Z,4.63
2024-04-26T18:01:23.659Z,4.30
2024-04-26T18:03:50.729Z,6.30
2024-04-26T18:06:18.324Z,6.70
2024-04-26T18:08:44.984Z,4.38
2024-04-26T18:11:15.650Z,4.70
2024-04-26T18:13:42.663Z,4.07
2024-04-26T18:16:17.468Z,2.95
2024-04-26T18:18:44.662Z,4.50
2024-04-26T18:21:12.883Z,28.85
2024-04-26T18:23:39.641Z,4.85
2024-04-26T18:26:10.608Z,5.20
2024-04-26T18:28:40.018Z,4.22
2024-04-26T18:31:06.745Z,14.88
2024-04-26T18:33:33.480Z,82.15
2024-04-26T18:36:00.847Z,54.08
2024-04-26T18:38:27.625Z,66.40
2024-04-26T18:40:54.408Z,23.08
2024-04-26T18:43:21.210Z,7.07
2024-04-26T18:45:47.951Z,3.15
2024-04-26T18:48:14.703Z,5.18
2024-04-26T18:50:41.662Z,6.28
2024-04-26T18:53:08.412Z,5.95
2024-04-26T18:55:35.199Z,4.80
2024-04-26T18:58:01.974Z,4.20
2024-04-26T19:00:28.664Z,3.90
2024-04-26T19:02:55.380Z,3.20
2024-04-26T19:05:22.182Z,5.55
2024-04-26T19:07:49.065Z,3.50
2024-04-26T19:10:16.086Z,5.80
2024-04-26T19:12:44.210Z,4.95
2024-04-26T19:15:11.009Z,5.15
2024-04-26T19:17:37.827Z,2.63
2024-04-26T19:20:05.172Z,7.20
2024-04-26T19:22:32.008Z,7.47
2024-04-26T19:24:58.784Z,5.63
2024-04-26T19:27:27.374Z,5.97
2024-04-26T19:29:54.294Z,5.45
2024-04-26T19:32:22.682Z,4.88
2024-04-26T19:34:50.167Z,3.42
2024-04-26T19:37:17.409Z,4.35
2024-04-26T19:39:47.334Z,4.03
2024-04-26T19:42:14.043Z,3.05
2024-04-26T19:44:40.696Z,3.55
2024-04-26T19:47:07.691Z,3.55
2024-04-26T19:49:41.237Z,2.38
2024-04-26T19:52:32.121Z,3.08
2024-04-26T19:55:17.629Z,3.78
2024-04-26T19:57:44.273Z,2.65
2024-04-26T20:00:11.918Z,2.72
2024-04-26T20:02:38.786Z,1.88
2024-04-26T20:05:05.662Z,2.13
2024-04-26T20:07:32.357Z,1.95
2024-04-26T20:09:59.036Z,3.75
2024-04-26T20:12:28.664Z,2.78
2024-04-26T20:14:55.710Z,2.30
2024-04-26T20:17:22.521Z,3.25
2024-04-26T20:19:49.298Z,5.25
2024-04-26T20:22:15.963Z,3.58
2024-04-26T20:24:42.738Z,3.78
2024-04-26T20:27:09.382Z,3.85
2024-04-26T20:29:36.369Z,3.05
2024-04-26T20:32:03.462Z,2.60
2024-04-26T20:34:30.354Z,2.33
2024-04-26T20:37:00.137Z,5.35
2024-04-26T20:39:27.872Z,8.25
2024-04-26T20:41:54.744Z,5.53
2024-04-26T20:44:22.122Z,3.10
2024-04-26T20:46:49.280Z,2.20
2024-04-26T20:49:20.800Z,2.83
2024-04-26T20:51:47.572Z,2.22
2024-04-26T20:54:15.927Z,3.03
2024-04-26T20:56:43.754Z,2.63
2024-04-26T20:59:10.618Z,1.95
2024-04-26T21:01:38.074Z,2.80
2024-04-26T21:04:04.923Z,3.65
2024-04-26T21:06:31.638Z,3.00
2024-04-26T21:08:58.347Z,2.13
2024-04-26T21:11:26.535Z,2.50
2024-04-26T21:13:53.490Z,2.92
2024-04-26T21:16:20.243Z,4.85
2024-04-26T21:18:47.945Z,2.67
2024-04-26T21:21:20.022Z,3.97
2024-04-26T21:23:50.167Z,2.30
2024-04-26T21:26:42.883Z,2.53
2024-04-26T21:29:09.861Z,4.88
2024-04-26T21:31:36.792Z,2.47
2024-04-26T21:34:03.744Z,2.15
2024-04-26T21:36:34.045Z,2.38
2024-04-26T21:39:03.242Z,4.88
2024-04-26T21:41:32.253Z,3.40
2024-04-26T21:43:59.215Z,2.92
2024-04-26T21:46:26.172Z,2.35
2024-04-26T21:48:53.108Z,5.35
2024-04-26T21:51:21.929Z,3.22
2024-04-26T21:53:49.498Z,2.92
2024-04-26T21:56:16.391Z,4.18
2024-04-26T21:58:43.267Z,2.30
2024-04-26T22:01:12.608Z,3.35
2024-04-26T22:03:39.302Z,4.10
2024-04-26T22:06:06.206Z,3.50
2024-04-26T22:08:33.086Z,3.55
2024-04-26T22:10:59.955Z,3.20
2024-04-26T22:13:26.805Z,2.80
2024-04-26T22:15:53.574Z,3.08
2024-04-26T22:18:20.386Z,4.25
2024-04-26T22:20:47.216Z,2.45
2024-04-26T22:23:15.287Z,2.58
2024-04-26T22:25:42.021Z,3.50
2024-04-26T22:28:08.740Z,3.58
2024-04-26T22:30:35.495Z,3.45
2024-04-26T22:33:02.239Z,2.83
2024-04-26T22:35:29.054Z,3.55
2024-04-26T22:37:55.891Z,5.10
2024-04-26T22:40:22.576Z,3.15
2024-04-26T22:42:49.223Z,5.13
2024-04-26T22:45:15.967Z,3.72
2024-04-26T22:47:44.519Z,3.63
2024-04-26T22:50:11.365Z,4.18
2024-04-26T22:52:39.293Z,3.88
2024-04-26T22:55:06.222Z,5.03
2024-04-26T22:57:32.934Z,6.53
2024-04-26T22:59:59.588Z,3.13
2024-04-26T23:02:26.814Z,5.20
2024-04-26T23:04:53.604Z,3.97
2024-04-26T23:07:20.441Z,4.00
2024-04-26T23:09:47.053Z,3.58
2024-04-26T23:12:13.775Z,3.55
2024-04-26T23:14:40.481Z,3.78
2024-04-26T23:17:07.191Z,6.95
2024-04-26T23:19:34.062Z,3.50
2024-04-26T23:22:00.762Z,4.18
2024-04-26T23:24:27.547Z,3.40
2024-04-26T23:26:54.171Z,4.20
2024-04-26T23:29:21.744Z,4.40
2024-04-26T23:31:48.599Z,5.72
2024-04-26T23:34:15.917Z,7.70
2024-04-26T23:36:42.644Z,5.00
2024-04-26T23:39:10.419Z,4.20
2024-04-26T23:41:37.654Z,3.88
2024-04-26T23:44:04.551Z,7.03
2024-04-26T23:46:33.177Z,3.50
2024-04-26T23:48:59.865Z,3.15
2024-04-26T23:51:26.591Z,3.53
2024-04-26T23:53:53.231Z,4.47
2024-04-26T23:56:19.835Z,4.22
2024-04-26T23:58:46.559Z,3.83
